Time;durP1;ratioP1;P1;durP2;ratioP2;P2;SDS_P1;SDS_P2;PMS_P1;PMS_P2;Temp;Humidity;BMP_temperature;BMP_pressure;BME280_temperature;BME280_humidity;BME280_pressure;Samples;Min_cycle;Max_cycle;Signal;HPM_P1;HPM_P2
2022/08/29 00:01:16;;;;;;;10.23;6.88;;;25.70;99.90;;;;;;5034344;28;20299;-73
2022/08/29 00:03:44;;;;;;;7.68;5.15;;;25.70;99.90;;;;;;5050684;28;20561;-73
2022/08/29 00:06:12;;;;;;;11.25;6.72;;;25.70;99.90;;;;;;5018033;28;20065;-73
2022/08/29 00:08:39;;;;;;;9.00;6.22;;;25.70;99.90;;;;;;5050492;28;20036;-73
2022/08/29 00:11:07;;;;;;;7.68;5.18;;;25.70;99.90;;;;;;5050572;28;20059;-71
2022/08/29 00:13:35;;;;;;;12.18;6.13;;;25.70;99.90;;;;;;5017410;28;20662;-73
2022/08/29 00:16:03;;;;;;;10.30;6.53;;;25.70;99.90;;;;;;5051615;28;20409;-72
2022/08/29 00:18:31;;;;;;;11.23;7.30;;;25.60;99.90;;;;;;5033907;28;20578;-73
2022/08/29 00:20:58;;;;;;;9.70;7.55;;;25.60;99.90;;;;;;5050395;28;20056;-72
2022/08/29 00:23:26;;;;;;;11.52;7.22;;;25.60;99.90;;;;;;5051348;28;20041;-72
2022/08/29 00:25:55;;;;;;;11.82;7.45;;;25.60;99.90;;;;;;5033575;28;20049;-72
2022/08/29 00:28:22;;;;;;;12.80;8.40;;;25.60;99.90;;;;;;5033935;28;20045;-73
2022/08/29 00:30:50;;;;;;;16.35;8.27;;;25.60;99.90;;;;;;5033686;28;20052;-72
2022/08/29 00:33:18;;;;;;;10.90;8.00;;;25.60;99.90;;;;;;5051377;28;20075;-73
2022/08/29 00:35:46;;;;;;;12.02;8.48;;;25.70;99.90;;;;;;5051034;28;20450;-72
2022/08/29 00:38:15;;;;;;;13.93;7.82;;;25.60;99.90;;;;;;5050206;28;20048;-73
2022/08/29 00:40:48;;;;;;;11.05;7.80;;;25.70;99.90;;;;;;5051339;28;20040;-73
2022/08/29 00:43:17;;;;;;;15.15;8.88;;;25.70;99.90;;;;;;5033155;28;20053;-72
2022/08/29 00:46:23;;;;;;;12.35;8.73;;;25.70;99.90;;;;;;5032677;28;20049;-73
2022/08/29 00:48:57;;;;;;;14.07;8.10;;;25.70;99.90;;;;;;5050078;28;20044;-72
2022/08/29 00:51:25;;;;;;;17.13;9.88;;;25.60;99.90;;;;;;5033348;28;20083;-73
2022/08/29 00:53:59;;;;;;;11.50;8.90;;;25.60;99.90;;;;;;5033027;28;20116;-72
2022/08/29 00:56:27;;;;;;;13.48;8.43;;;25.60;99.90;;;;;;5033464;28;20110;-73
2022/08/29 00:59:01;;;;;;;14.27;9.75;;;25.60;99.90;;;;;;5049858;28;20084;-73
2022/08/29 01:01:28;;;;;;;12.95;8.68;;;25.60;99.90;;;;;;5048827;28;20127;-73
2022/08/29 01:03:56;;;;;;;18.85;9.25;;;25.60;99.90;;;;;;5049872;28;20131;-73
2022/08/29 01:06:26;;;;;;;13.15;8.70;;;25.60;99.90;;;;;;5049699;28;20411;-72
2022/08/29 01:08:54;;;;;;;15.23;8.30;;;25.60;99.90;;;;;;5033149;28;20055;-72
2022/08/29 01:14:09;;;;;;;11.23;8.23;;;25.60;99.90;;;;;;5049919;28;20049;-73
2022/08/29 01:16:37;;;;;;;14.13;8.88;;;25.60;99.90;;;;;;5033165;28;20033;-72
2022/08/29 01:19:22;;;;;;;14.20;8.15;;;25.60;99.90;;;;;;5050728;28;20092;-72
2022/08/29 01:22:02;;;;;;;13.43;8.27;;;25.60;99.90;;;;;;5049465;28;20044;-73
2022/08/29 01:24:40;;;;;;;13.48;8.10;;;25.60;99.90;;;;;;5049459;28;20127;-73
2022/08/29 01:27:09;;;;;;;10.75;7.43;;;25.60;99.90;;;;;;5049421;28;20041;-72
2022/08/29 01:29:37;;;;;;;13.35;7.72;;;25.60;99.90;;;;;;5032774;28;20041;-72
2022/08/29 01:32:05;;;;;;;13.85;10.05;;;25.60;99.90;;;;;;5049222;28;20041;-72
2022/08/29 01:34:33;;;;;;;12.20;8.23;;;25.60;99.90;;;;;;5032548;28;20053;-72
2022/08/29 01:37:06;;;;;;;14.48;8.20;;;25.60;99.90;;;;;;5045063;28;20060;-75
2022/08/29 01:39:36;;;;;;;14.18;9.98;;;25.60;99.90;;;;;;5016094;28;20063;-72
2022/08/29 01:42:11;;;;;;;13.55;8.98;;;25.60;99.90;;;;;;5032872;28;20057;-73
2022/08/29 01:44:39;;;;;;;14.30;9.38;;;25.50;99.90;;;;;;5016266;28;20143;-73
2022/08/29 01:47:08;;;;;;;13.27;8.43;;;25.50;99.90;;;;;;5032709;28;20152;-72
2022/08/29 01:49:36;;;;;;;14.00;9.35;;;25.50;99.90;;;;;;5047129;28;20466;-72
2022/08/29 01:52:05;;;;;;;14.40;9.20;;;25.50;99.90;;;;;;5032710;28;20056;-73
2022/08/29 01:54:33;;;;;;;14.52;8.85;;;25.40;99.90;;;;;;5050443;28;20435;-73
2022/08/29 01:57:01;;;;;;;11.95;8.27;;;25.40;99.90;;;;;;5051952;28;20124;-73
2022/08/29 01:59:30;;;;;;;14.32;9.57;;;25.40;99.90;;;;;;5035667;28;20104;-73
2022/08/29 02:02:04;;;;;;;13.75;8.65;;;25.40;99.90;;;;;;5065155;28;20052;-72
2022/08/29 02:04:32;;;;;;;13.23;8.38;;;25.40;99.90;;;;;;5074475;28;20064;-72
2022/08/29 02:06:59;;;;;;;12.10;7.75;;;25.40;99.90;;;;;;5056365;28;20048;-73
2022/08/29 02:09:27;;;;;;;12.98;8.43;;;25.40;99.90;;;;;;5056375;28;20136;-73
2022/08/29 02:11:57;;;;;;;14.13;9.38;;;25.40;99.90;;;;;;5074051;28;20482;-76
2022/08/29 02:14:25;;;;;;;14.55;8.13;;;25.40;99.90;;;;;;5074040;28;20178;-72
2022/08/29 02:16:52;;;;;;;16.00;9.00;;;25.40;99.90;;;;;;5056570;28;20050;-72
2022/08/29 02:19:20;;;;;;;11.27;8.32;;;25.40;99.90;;;;;;5056094;28;20052;-72
2022/08/29 02:21:49;;;;;;;11.68;8.13;;;25.40;99.90;;;;;;5056503;28;20049;-72
2022/08/29 02:24:17;;;;;;;14.38;7.97;;;25.40;99.90;;;;;;5073855;28;20131;-72
2022/08/29 02:26:53;;;;;;;12.23;8.57;;;25.40;99.90;;;;;;5072470;28;20059;-73
2022/08/29 02:29:20;;;;;;;13.70;9.10;;;25.30;99.90;;;;;;5072680;28;20078;-73
2022/08/29 02:31:48;;;;;;;13.43;7.63;;;25.30;99.90;;;;;;5073606;28;20086;-73
2022/08/29 02:34:16;;;;;;;13.77;8.30;;;25.30;99.90;;;;;;5054192;28;20063;-73
2022/08/29 02:36:44;;;;;;;13.63;8.40;;;25.30;99.90;;;;;;5052283;28;20048;-72
2022/08/29 02:39:11;;;;;;;12.23;7.18;;;25.30;99.90;;;;;;5052393;28;20044;-73
2022/08/29 02:41:39;;;;;;;17.08;8.60;;;25.20;99.90;;;;;;5052208;28;20053;-72
2022/08/29 02:44:07;;;;;;;18.42;8.82;;;25.20;99.90;;;;;;5052343;28;20084;-72
2022/08/29 02:46:36;;;;;;;15.18;9.15;;;25.20;99.90;;;;;;5052221;28;20103;-72
2022/08/29 02:49:04;;;;;;;16.05;8.32;;;25.20;99.90;;;;;;5035893;28;20578;-73
2022/08/29 02:51:32;;;;;;;12.52;9.85;;;25.20;99.90;;;;;;5035666;28;20061;-74
2022/08/29 02:54:01;;;;;;;13.75;8.70;;;25.20;99.90;;;;;;5052096;28;20072;-72
2022/08/29 02:56:29;;;;;;;14.73;8.98;;;25.20;99.90;;;;;;5019470;28;20076;-72
2022/08/29 02:58:57;;;;;;;12.45;8.23;;;25.20;99.90;;;;;;5051814;28;20048;-73
2022/08/29 03:01:25;;;;;;;15.60;8.85;;;25.20;99.90;;;;;;5032566;28;20052;-75
2022/08/29 03:03:53;;;;;;;14.27;8.00;;;25.10;99.90;;;;;;5033286;28;20491;-72
2022/08/29 03:06:21;;;;;;;14.63;8.80;;;25.10;99.90;;;;;;5015793;28;20149;-72
2022/08/29 03:08:49;;;;;;;11.82;7.40;;;25.10;99.90;;;;;;4998607;28;20063;-72
2022/08/29 03:11:17;;;;;;;11.73;8.27;;;25.10;99.90;;;;;;5015713;28;20115;-72
2022/08/29 03:13:45;;;;;;;13.68;7.70;;;25.10;99.90;;;;;;5015500;28;20144;-74
2022/08/29 03:16:13;;;;;;;12.60;7.35;;;25.10;99.90;;;;;;5015759;28;20065;-72
2022/08/29 03:18:41;;;;;;;9.95;6.70;;;25.10;99.90;;;;;;5032884;28;20045;-72
2022/08/29 03:21:18;;;;;;;12.52;7.47;;;25.10;99.90;;;;;;5032759;28;20158;-73
2022/08/29 03:23:48;;;;;;;14.30;8.68;;;25.10;99.90;;;;;;5032721;28;20111;-72
2022/08/29 03:26:15;;;;;;;15.43;8.90;;;25.00;99.90;;;;;;5031779;28;20653;-73
2022/08/29 03:28:43;;;;;;;11.68;8.25;;;25.00;99.90;;;;;;5034937;28;20065;-72
2022/08/29 03:31:10;;;;;;;14.07;8.43;;;25.00;99.90;;;;;;5051443;28;20095;-72
2022/08/29 03:33:38;;;;;;;13.65;8.80;;;25.00;99.90;;;;;;5051146;28;20136;-72
2022/08/29 03:36:08;;;;;;;12.77;9.10;;;25.00;99.90;;;;;;5052460;28;20049;-72
2022/08/29 03:38:37;;;;;;;14.88;9.20;;;25.00;99.90;;;;;;5052340;28;20415;-72
2022/08/29 03:41:06;;;;;;;12.73;9.27;;;25.00;99.90;;;;;;5052327;28;20135;-72
2022/08/29 03:43:33;;;;;;;10.05;7.68;;;25.00;99.90;;;;;;5018259;28;20167;-72
2022/08/29 03:46:01;;;;;;;13.13;9.77;;;25.00;99.90;;;;;;5051025;28;20115;-73
2022/08/29 03:48:29;;;;;;;15.38;8.52;;;24.90;99.90;;;;;;5051101;28;20044;-73
2022/08/29 03:50:56;;;;;;;15.88;8.32;;;24.90;99.90;;;;;;5051229;28;20045;-72
2022/08/29 03:53:24;;;;;;;16.13;10.68;;;24.90;99.90;;;;;;5052009;28;20044;-75
2022/08/29 03:55:51;;;;;;;12.63;10.32;;;24.90;99.90;;;;;;5051009;28;20039;-73
2022/08/29 03:58:19;;;;;;;14.30;9.15;;;24.90;99.90;;;;;;5052093;28;20491;-71
2022/08/29 04:00:46;;;;;;;18.08;9.45;;;24.90;99.90;;;;;;5034403;28;20120;-72
2022/08/29 04:03:14;;;;;;;14.65;9.18;;;24.80;99.90;;;;;;5050702;28;20048;-73
2022/08/29 04:05:41;;;;;;;25.98;11.13;;;24.80;99.90;;;;;;5051030;28;20056;-73
2022/08/29 04:08:09;;;;;;;13.38;8.70;;;24.80;99.90;;;;;;5050730;28;20072;-72
2022/08/29 04:10:38;;;;;;;12.68;8.98;;;24.80;99.90;;;;;;5034221;28;20403;-72
2022/08/29 04:13:07;;;;;;;13.38;10.10;;;24.80;99.90;;;;;;5034262;28;20479;-74
2022/08/29 04:15:38;;;;;;;13.27;8.73;;;24.80;99.90;;;;;;5017590;28;20576;-73
2022/08/29 04:18:08;;;;;;;16.73;9.63;;;24.80;99.90;;;;;;5050334;28;20045;-75
2022/08/29 04:20:39;;;;;;;14.45;9.07;;;24.80;99.90;;;;;;5045760;28;20068;-73
2022/08/29 04:23:07;;;;;;;20.23;11.27;;;24.80;99.90;;;;;;5057009;28;20110;-72
2022/08/29 04:25:35;;;;;;;15.18;9.63;;;24.80;99.90;;;;;;5059722;28;20049;-72
2022/08/29 04:28:06;;;;;;;18.83;11.25;;;24.80;99.90;;;;;;5057508;28;20033;-72
2022/08/29 04:30:36;;;;;;;14.35;9.23;;;24.80;99.90;;;;;;5045224;28;20052;-72
2022/08/29 04:33:09;;;;;;;16.10;10.07;;;24.80;99.90;;;;;;5048792;28;20124;-73
2022/08/29 04:35:38;;;;;;;15.50;10.85;;;24.80;99.90;;;;;;5059047;28;20075;-72
2022/08/29 04:38:07;;;;;;;15.88;9.57;;;24.90;99.90;;;;;;5044672;28;20041;-72
2022/08/29 04:40:37;;;;;;;14.50;9.48;;;24.90;99.90;;;;;;5030639;28;20048;-72
2022/08/29 04:43:04;;;;;;;15.75;10.18;;;25.00;99.90;;;;;;5044748;28;20049;-72
2022/08/29 04:45:34;;;;;;;15.57;9.35;;;25.00;99.90;;;;;;5030442;28;20062;-72
2022/08/29 04:48:03;;;;;;;15.20;9.52;;;25.10;99.90;;;;;;5027349;28;20409;-73
2022/08/29 04:50:30;;;;;;;19.30;10.52;;;25.20;99.90;;;;;;5029324;28;20041;-74
2022/08/29 04:52:58;;;;;;;15.63;8.90;;;25.30;99.90;;;;;;5013824;28;20684;-72
2022/08/29 04:55:25;;;;;;;12.82;8.40;;;25.40;99.90;;;;;;5013170;28;20120;-73
2022/08/29 04:57:55;;;;;;;17.77;10.18;;;25.50;99.90;;;;;;5029939;28;20045;-74
2022/08/29 05:00:26;;;;;;;14.18;8.68;;;25.60;99.90;;;;;;4997717;28;20299;-72
2022/08/29 05:02:54;;;;;;;13.63;8.38;;;25.70;99.90;;;;;;5029937;28;20527;-74
2022/08/29 05:05:22;;;;;;;13.32;8.10;;;25.80;99.90;;;;;;5030981;28;20045;-72
2022/08/29 05:07:49;;;;;;;14.43;8.48;;;25.90;99.90;;;;;;5029753;28;20057;-73
2022/08/29 05:10:19;;;;;;;12.32;9.25;;;26.00;99.90;;;;;;5029564;28;20041;-73
2022/08/29 05:12:47;;;;;;;14.55;9.70;;;26.10;99.90;;;;;;5029813;28;20088;-72
2022/08/29 05:15:16;;;;;;;14.05;8.73;;;26.30;99.90;;;;;;5013534;28;20057;-75
2022/08/29 05:17:44;;;;;;;12.57;8.50;;;26.40;99.90;;;;;;5042643;28;20091;-72
2022/08/29 05:20:12;;;;;;;10.38;7.95;;;26.50;99.90;;;;;;5049655;28;20059;-72
2022/08/29 05:22:40;;;;;;;27.63;8.98;;;26.60;99.90;;;;;;5032625;28;20049;-72
2022/08/29 05:25:11;;;;;;;11.68;8.30;;;26.70;99.90;;;;;;5050573;28;20048;-72
2022/08/29 05:27:41;;;;;;;16.02;8.73;;;26.90;99.90;;;;;;5032730;28;20045;-73
2022/08/29 05:30:09;;;;;;;14.40;8.30;;;27.00;99.90;;;;;;5049254;28;20041;-73
2022/08/29 05:32:36;;;;;;;14.98;7.90;;;27.10;99.90;;;;;;5050605;28;20131;-73
2022/08/29 05:35:04;;;;;;;14.68;9.52;;;27.20;99.90;;;;;;5048842;28;20060;-72
2022/08/29 05:37:32;;;;;;;16.77;8.88;;;27.30;99.90;;;;;;5031939;28;20047;-73
2022/08/29 05:40:01;;;;;;;16.48;8.93;;;27.40;99.90;;;;;;5032918;28;20041;-73
2022/08/29 05:42:29;;;;;;;16.80;7.93;;;27.60;99.90;;;;;;5050417;28;20052;-73
2022/08/29 05:44:57;;;;;;;19.10;8.55;;;27.70;99.90;;;;;;5049464;28;20052;-72
2022/08/29 05:47:25;;;;;;;14.80;7.78;;;27.90;99.90;;;;;;5032652;28;20049;-75
2022/08/29 05:49:54;;;;;;;18.92;8.55;;;28.00;99.90;;;;;;5049196;28;20222;-73
2022/08/29 05:52:22;;;;;;;19.17;9.18;;;28.10;99.90;;;;;;5050260;28;20601;-72
2022/08/29 05:54:50;;;;;;;14.00;7.88;;;28.20;99.90;;;;;;5032748;28;20075;-73
2022/08/29 05:57:21;;;;;;;17.08;7.80;;;28.30;99.90;;;;;;5049189;28;20045;-72
2022/08/29 05:59:51;;;;;;;12.10;7.45;;;28.40;99.90;;;;;;5050209;28;20106;-72
2022/08/29 06:02:20;;;;;;;13.38;8.23;;;28.50;99.90;;;;;;5048320;28;20060;-73
2022/08/29 06:04:49;;;;;;;10.35;7.05;;;28.60;99.90;;;;;;5047514;28;20128;-72
2022/08/29 06:07:17;;;;;;;11.10;7.10;;;28.70;99.90;;;;;;5032310;28;20052;-72
2022/08/29 06:09:45;;;;;;;12.38;6.18;;;28.80;99.90;;;;;;5015927;28;20810;-73
2022/08/29 06:12:14;;;;;;;9.55;7.07;;;28.90;99.90;;;;;;5049089;28;20040;-73
2022/08/29 06:14:42;;;;;;;10.95;6.63;;;28.90;99.90;;;;;;5049137;28;20060;-72
2022/08/29 06:17:11;;;;;;;13.30;6.13;;;29.00;99.90;;;;;;5048842;28;20392;-72
2022/08/29 06:19:39;;;;;;;9.93;7.20;;;29.10;99.90;;;;;;5050170;28;20095;-72
2022/08/29 06:22:08;;;;;;;10.15;6.35;;;29.20;99.90;;;;;;5016021;28;20049;-73
2022/08/29 06:24:38;;;;;;;13.50;7.75;;;29.30;99.90;;;;;;5048917;28;20470;-72
2022/08/29 06:27:05;;;;;;;10.32;7.43;;;29.30;99.90;;;;;;5049059;28;20057;-73
2022/08/29 06:29:33;;;;;;;10.05;7.30;;;29.50;99.90;;;;;;5049797;28;20098;-72
2022/08/29 06:32:01;;;;;;;10.77;6.75;;;29.60;99.90;;;;;;5032538;28;20077;-72
2022/08/29 06:34:29;;;;;;;8.82;7.25;;;29.60;99.90;;;;;;5032270;28;20175;-73
2022/08/29 06:36:58;;;;;;;9.85;6.32;;;29.60;99.90;;;;;;5048910;28;20488;-72
2022/08/29 06:39:25;;;;;;;11.40;6.60;;;29.70;99.90;;;;;;5048587;28;20049;-72
2022/08/29 06:41:53;;;;;;;11.48;6.72;;;29.70;99.90;;;;;;5049914;28;20037;-72
2022/08/29 06:44:23;;;;;;;8.80;5.95;;;29.80;99.90;;;;;;5035380;28;20076;-72
2022/08/29 06:46:51;;;;;;;11.90;6.35;;;29.80;99.90;;;;;;5052554;28;20407;-73
2022/08/29 06:49:20;;;;;;;13.75;6.35;;;29.90;99.90;;;;;;5053680;28;20143;-72
2022/08/29 06:51:51;;;;;;;8.38;5.85;;;29.80;99.90;;;;;;5052208;28;20045;-72
2022/08/29 06:54:24;;;;;;;13.57;6.53;;;29.70;99.90;;;;;;5053526;28;20056;-74
2022/08/29 06:56:52;;;;;;;8.80;5.50;;;29.60;99.90;;;;;;5052269;28;20139;-72
2022/08/29 06:59:19;;;;;;;8.43;6.07;;;29.40;99.90;;;;;;5049749;28;20572;-73
2022/08/29 07:01:47;;;;;;;10.50;6.65;;;29.30;99.90;;;;;;5035441;28;20453;-72
2022/08/29 07:04:15;;;;;;;9.73;7.22;;;29.20;99.90;;;;;;5053255;28;20510;-72
2022/08/29 07:06:43;;;;;;;13.07;6.45;;;29.10;99.90;;;;;;5035355;28;20041;-72
2022/08/29 07:09:11;;;;;;;9.93;6.10;;;29.20;99.90;;;;;;5051904;28;20052;-72
2022/08/29 07:11:40;;;;;;;8.25;5.72;;;29.20;99.90;;;;;;5051399;28;20049;-72
2022/08/29 07:14:08;;;;;;;8.52;5.80;;;29.20;99.90;;;;;;5035402;28;20049;-73
2022/08/29 07:16:37;;;;;;;11.10;6.53;;;29.30;99.90;;;;;;5052129;28;20044;-73
2022/08/29 07:19:06;;;;;;;8.80;6.63;;;29.40;99.90;;;;;;5035326;28;20051;-73
2022/08/29 07:21:34;;;;;;;7.28;5.60;;;29.70;99.90;;;;;;5035218;28;20120;-72
2022/08/29 07:24:02;;;;;;;14.73;6.07;;;29.90;99.90;;;;;;5052780;28;20111;-73
2022/08/29 07:26:37;;;;;;;8.15;5.10;;;30.30;99.90;;;;;;5051412;28;20040;-72
2022/08/29 07:29:09;;;;;;;6.28;4.47;;;30.50;99.90;;;;;;5051937;28;20045;-72
2022/08/29 07:31:37;;;;;;;7.95;5.05;;;30.80;99.90;;;;;;5051322;28;20045;-71
2022/08/29 07:34:06;;;;;;;7.22;4.65;;;31.00;99.90;;;;;;5018650;28;20136;-72
2022/08/29 07:36:34;;;;;;;7.03;4.63;;;31.20;99.90;;;;;;5034931;28;20139;-72
2022/08/29 07:39:05;;;;;;;8.48;4.57;;;31.30;99.90;;;;;;5051083;28;20060;-73
2022/08/29 07:41:33;;;;;;;7.15;4.57;;;31.50;99.90;;;;;;5018490;28;20075;-72
2022/08/29 07:44:01;;;;;;;7.28;4.13;;;31.50;99.90;;;;;;5051210;28;20149;-73
2022/08/29 07:46:30;;;;;;;5.85;3.95;;;31.70;99.90;;;;;;5051372;28;20391;-73
2022/08/29 07:48:58;;;;;;;10.48;4.97;;;31.70;99.90;;;;;;5034803;28;20136;-72
2022/08/29 07:51:26;;;;;;;9.85;4.65;;;31.90;99.90;;;;;;5050854;28;20033;-72
2022/08/29 07:53:55;;;;;;;8.00;5.82;;;31.80;99.90;;;;;;5051449;28;20071;-73
2022/08/29 07:56:27;;;;;;;11.02;5.15;;;31.60;99.90;;;;;;5034654;28;20373;-72
2022/08/29 07:58:56;;;;;;;10.40;5.60;;;31.30;99.90;;;;;;5052063;28;20556;-72
2022/08/29 08:01:25;;;;;;;8.38;4.93;;;30.90;99.90;;;;;;5050829;28;20072;-72
2022/08/29 08:03:54;;;;;;;7.63;5.47;;;30.60;99.90;;;;;;5034395;28;20070;-73
2022/08/29 08:06:23;;;;;;;10.60;5.97;;;30.40;99.90;;;;;;5051059;28;20151;-73
2022/08/29 08:08:52;;;;;;;10.68;5.65;;;30.60;99.90;;;;;;5034644;28;20052;-73
2022/08/29 08:11:21;;;;;;;7.90;5.75;;;30.60;99.90;;;;;;5052242;28;20136;-72
2022/08/29 08:13:54;;;;;;;7.25;5.00;;;30.90;99.90;;;;;;5050559;28;20053;-72
2022/08/29 08:16:24;;;;;;;8.75;5.40;;;31.10;99.90;;;;;;5050796;28;20045;-73
2022/08/29 08:18:53;;;;;;;7.75;5.68;;;31.30;99.90;;;;;;5034270;28;20048;-72
2022/08/29 08:21:21;;;;;;;9.10;5.65;;;31.30;99.90;;;;;;5050734;28;20045;-72
2022/08/29 08:23:51;;;;;;;8.20;5.93;;;31.30;99.90;;;;;;5051662;28;20155;-72
2022/08/29 08:26:19;;;;;;;8.27;5.63;;;31.20;99.90;;;;;;5050470;28;20390;-72
2022/08/29 08:28:47;;;;;;;11.30;5.85;;;31.10;99.90;;;;;;5050382;28;20127;-73
2022/08/29 08:31:16;;;;;;;11.27;5.63;;;31.10;99.90;;;;;;5050398;28;20055;-72
2022/08/29 08:33:44;;;;;;;8.93;5.10;;;31.10;99.90;;;;;;5050296;28;20048;-72
2022/08/29 08:36:20;;;;;;;7.88;4.18;;;31.20;99.90;;;;;;5050156;28;20056;-72
2022/08/29 08:38:48;;;;;;;8.30;4.80;;;31.30;99.90;;;;;;5033910;28;20052;-72
2022/08/29 08:41:19;;;;;;;8.32;5.68;;;31.50;99.90;;;;;;5033996;28;20107;-74
2022/08/29 08:43:52;;;;;;;8.18;4.72;;;31.70;99.90;;;;;;5049782;28;20430;-72
2022/08/29 08:46:42;;;;;;;8.02;4.82;;;31.90;99.90;;;;;;5050067;28;20587;-72
2022/08/29 08:49:21;;;;;;;6.85;4.53;;;32.10;99.90;;;;;;5049150;28;20048;-72
2022/08/29 08:51:54;;;;;;;5.03;4.07;;;32.10;99.90;;;;;;5013819;28;20057;-73
2022/08/29 08:54:28;;;;;;;6.55;4.28;;;32.00;99.90;;;;;;5030153;28;20062;-72
2022/08/29 08:57:08;;;;;;;5.00;3.85;;;32.00;99.90;;;;;;5031256;28;20051;-71
2022/08/29 08:59:42;;;;;;;6.95;4.05;;;31.90;99.90;;;;;;4997192;28;20052;-72
2022/08/29 09:02:44;;;;;;;10.13;4.88;;;31.70;99.90;;;;;;5013586;28;20111;-73
2022/08/29 09:05:23;;;;;;;7.10;4.47;;;31.80;99.90;;;;;;5030607;28;20038;-72
2022/08/29 09:08:40;;;;;;;6.20;3.80;;;31.90;99.90;;;;;;5029683;28;20514;-72
2022/08/29 09:11:16;;;;;;;10.30;4.32;;;31.90;99.90;;;;;;4992119;28;20045;-71
2022/08/29 09:13:53;;;;;;;6.55;4.63;;;31.90;99.90;;;;;;5030725;28;20770;-73
2022/08/29 09:16:28;;;;;;;7.65;4.57;;;31.90;99.90;;;;;;5030162;28;20051;-73
2022/08/29 09:19:00;;;;;;;6.57;3.97;;;32.00;99.90;;;;;;5029600;28;20518;-72
2022/08/29 09:21:31;;;;;;;6.80;4.63;;;32.10;99.90;;;;;;5013132;28;20045;-72
2022/08/29 09:24:14;;;;;;;7.10;4.40;;;32.10;99.90;;;;;;5031069;28;20065;-72
2022/08/29 09:26:43;;;;;;;5.57;4.13;;;32.20;99.90;;;;;;4997184;28;20060;-74
2022/08/29 09:29:12;;;;;;;5.80;4.70;;;32.20;99.90;;;;;;5030797;28;20053;-74
2022/08/29 09:31:40;;;;;;;5.68;4.10;;;32.30;99.60;;;;;;5029338;28;20123;-72
2022/08/29 09:34:11;;;;;;;6.93;4.38;;;32.20;99.80;;;;;;5030380;28;20518;-74
2022/08/29 09:36:50;;;;;;;7.68;4.55;;;32.20;99.60;;;;;;5043169;28;20080;-74
2022/08/29 09:39:27;;;;;;;6.78;4.47;;;32.20;99.60;;;;;;5049447;28;20044;-73
2022/08/29 09:41:57;;;;;;;7.57;4.80;;;32.30;99.60;;;;;;5016727;28;20392;-74
2022/08/29 09:44:34;;;;;;;8.40;5.05;;;32.50;99.60;;;;;;5049192;28;20053;-74
2022/08/29 09:47:12;;;;;;;5.75;4.10;;;32.60;99.00;;;;;;5049344;28;20052;-73
2022/08/29 09:49:58;;;;;;;7.40;4.22;;;32.50;98.80;;;;;;5032856;28;20147;-73
2022/08/29 09:52:26;;;;;;;5.70;3.72;;;32.30;98.90;;;;;;5032981;28;20068;-74
2022/08/29 09:54:54;;;;;;;6.20;3.88;;;31.90;99.60;;;;;;5050196;28;20039;-73
2022/08/29 09:57:25;;;;;;;8.60;5.00;;;31.50;99.90;;;;;;5050467;28;20041;-73
2022/08/29 10:00:12;;;;;;;5.60;4.03;;;31.10;99.90;;;;;;5016747;28;20103;-74
2022/08/29 10:02:51;;;;;;;7.88;4.65;;;30.60;99.90;;;;;;5050394;28;20496;-73
2022/08/29 10:05:30;;;;;;;9.00;4.38;;;30.40;99.90;;;;;;5032756;28;20064;-74
2022/08/29 10:07:58;;;;;;;7.10;4.32;;;30.00;99.90;;;;;;5049106;28;20060;-74
2022/08/29 10:10:29;;;;;;;7.75;4.10;;;29.80;99.90;;;;;;5049189;28;20139;-73
2022/08/29 10:13:19;;;;;;;7.63;4.00;;;29.50;99.90;;;;;;5049552;28;20067;-73
2022/08/29 10:16:00;;;;;;;7.30;4.85;;;29.40;99.90;;;;;;5048727;28;20048;-73
2022/08/29 10:18:34;;;;;;;7.47;5.05;;;29.20;99.90;;;;;;5051571;28;20128;-72
2022/08/29 10:21:09;;;;;;;9.43;5.45;;;29.00;99.90;;;;;;5053912;28;20041;-72
2022/08/29 10:24:19;;;;;;;6.88;4.65;;;28.90;99.90;;;;;;5052820;28;20403;-73
2022/08/29 10:27:15;;;;;;;6.32;5.20;;;28.70;99.90;;;;;;5046276;28;20076;-71
2022/08/29 10:29:52;;;;;;;6.45;4.68;;;28.60;99.90;;;;;;5052297;28;20402;-72
2022/08/29 10:32:52;;;;;;;8.00;4.97;;;28.50;99.90;;;;;;5036340;28;20055;-72
2022/08/29 10:35:29;;;;;;;8.23;5.53;;;28.50;99.90;;;;;;5052276;28;20092;-72
2022/08/29 10:38:17;;;;;;;9.30;4.88;;;28.40;99.90;;;;;;5052441;28;20049;-72
2022/08/29 10:41:23;;;;;;;11.52;6.10;;;28.30;99.90;;;;;;5052348;28;20124;-73
2022/08/29 10:44:00;;;;;;;7.72;5.47;;;28.30;99.90;;;;;;5050882;28;20061;-73
2022/08/29 10:47:20;;;;;;;10.15;5.90;;;28.30;99.90;;;;;;5052170;28;20047;-71
2022/08/29 10:50:14;;;;;;;6.63;4.97;;;28.20;99.90;;;;;;5051771;28;20108;-72
2022/08/29 10:53:12;;;;;;;10.20;6.53;;;28.20;99.90;;;;;;5036022;28;20041;-72
2022/08/29 10:55:56;;;;;;;10.02;5.97;;;28.20;99.90;;;;;;5052094;28;20111;-72
2022/08/29 10:58:34;;;;;;;13.50;5.38;;;28.20;99.90;;;;;;5035812;28;20518;-72
2022/08/29 11:01:24;;;;;;;8.88;5.53;;;28.20;99.90;;;;;;5053049;28;20099;-72
2022/08/29 11:04:07;;;;;;;8.52;5.93;;;28.10;99.90;;;;;;5052101;28;20060;-73
2022/08/29 11:06:54;;;;;;;9.02;5.65;;;28.10;99.90;;;;;;5035504;28;20526;-73
2022/08/29 11:09:34;;;;;;;11.65;4.97;;;28.00;99.90;;;;;;5035397;28;20051;-72
2022/08/29 11:12:22;;;;;;;12.27;4.93;;;27.80;99.90;;;;;;5035538;28;20107;-73
2022/08/29 11:15:04;;;;;;;11.20;4.78;;;27.60;99.90;;;;;;5051522;28;20044;-73
2022/08/29 11:17:37;;;;;;;10.60;5.40;;;27.50;99.90;;;;;;5051565;28;20116;-73
2022/08/29 11:20:16;;;;;;;8.55;4.30;;;27.50;99.90;;;;;;5051711;28;20052;-72
2022/08/29 11:22:51;;;;;;;10.63;5.68;;;27.40;99.90;;;;;;5014545;28;20049;-74
2022/08/29 11:25:20;;;;;;;7.38;5.15;;;27.30;99.90;;;;;;5031395;28;20119;-73
2022/08/29 11:28:27;;;;;;;18.17;7.40;;;27.20;99.90;;;;;;5031479;28;20049;-73
2022/08/29 11:31:43;;;;;;;8.25;4.85;;;27.20;99.90;;;;;;4998804;28;20508;-73
2022/08/29 11:34:16;;;;;;;7.65;5.00;;;27.00;99.90;;;;;;5011720;28;20519;-73
2022/08/29 11:37:02;;;;;;;9.35;5.68;;;27.00;99.90;;;;;;5032664;28;20048;-73
2022/08/29 11:39:44;;;;;;;10.00;5.50;;;27.00;99.90;;;;;;5030963;28;20056;-72
2022/08/29 11:42:15;;;;;;;12.27;6.38;;;27.00;99.90;;;;;;5031339;28;20046;-72
2022/08/29 11:45:10;;;;;;;9.85;6.35;;;27.00;99.90;;;;;;5031097;28;20095;-73
2022/08/29 11:47:45;;;;;;;9.55;6.13;;;27.00;99.90;;;;;;5030880;28;20514;-73
2022/08/29 11:50:19;;;;;;;9.70;6.57;;;27.10;99.90;;;;;;5014886;28;20049;-72
2022/08/29 11:53:09;;;;;;;9.85;5.15;;;27.10;99.90;;;;;;5030968;28;20038;-73
2022/08/29 11:55:41;;;;;;;9.30;4.95;;;27.20;99.90;;;;;;5032078;28;20140;-73
2022/08/29 11:58:15;;;;;;;8.05;4.93;;;27.30;99.90;;;;;;5046377;28;20045;-74
2022/08/29 12:00:44;;;;;;;7.55;4.70;;;27.50;99.90;;;;;;5034222;28;20051;-73
2022/08/29 12:03:31;;;;;;;9.70;5.68;;;27.70;99.90;;;;;;5017734;28;20499;-73
2022/08/29 12:06:28;;;;;;;10.38;5.35;;;27.90;99.90;;;;;;5050594;28;20045;-75
2022/08/29 12:09:11;;;;;;;9.57;5.78;;;28.10;99.90;;;;;;5034121;28;20072;-74
2022/08/29 12:11:58;;;;;;;9.48;6.15;;;28.20;99.90;;;;;;5050610;28;20158;-74
2022/08/29 12:14:35;;;;;;;9.73;5.20;;;28.40;99.90;;;;;;5034612;28;20076;-73
2022/08/29 12:17:28;;;;;;;7.20;5.63;;;28.40;99.90;;;;;;5013913;28;20076;-73
2022/08/29 12:20:33;;;;;;;7.53;5.25;;;28.50;99.90;;;;;;5030450;28;20046;-73
2022/08/29 12:23:26;;;;;;;8.27;5.80;;;28.50;99.90;;;;;;5030862;28;20045;-73
2022/08/29 12:26:01;;;;;;;9.35;6.05;;;28.60;99.90;;;;;;5031583;28;20049;-73
2022/08/29 12:28:57;;;;;;;10.68;7.10;;;28.70;99.90;;;;;;5030067;28;20111;-73
2022/08/29 12:31:25;;;;;;;15.25;5.93;;;28.70;99.90;;;;;;5030819;28;20080;-76
2022/08/29 12:33:53;;;;;;;8.55;5.30;;;28.80;99.90;;;;;;5014216;28;20795;-73
2022/08/29 12:36:59;;;;;;;10.95;5.68;;;28.90;99.90;;;;;;5014755;28;20487;-73
2022/08/29 12:39:57;;;;;;;10.43;5.53;;;28.80;99.90;;;;;;5040552;28;20059;-73
2022/08/29 12:42:50;;;;;;;9.32;5.93;;;28.80;99.90;;;;;;5010243;28;20087;-76
2022/08/29 12:45:25;;;;;;;10.55;6.05;;;28.70;99.90;;;;;;5033643;28;20045;-73
2022/08/29 12:47:57;;;;;;;11.57;6.32;;;28.60;99.90;;;;;;5043320;28;20041;-73
2022/08/29 12:50:35;;;;;;;9.60;5.13;;;28.60;99.90;;;;;;5042437;28;20053;-74
2022/08/29 12:53:14;;;;;;;11.73;5.78;;;28.50;99.90;;;;;;5023262;28;20053;-73
2022/08/29 12:55:47;;;;;;;10.15;6.13;;;28.40;99.90;;;;;;5033759;28;20041;-73
2022/08/29 12:58:32;;;;;;;8.82;6.30;;;28.40;99.90;;;;;;5036649;28;20820;-73
2022/08/29 13:01:02;;;;;;;;;;;28.40;99.90;;;;;;5030766;28;20045;-73
2022/08/29 13:03:30;;;;;;;9.35;6.75;;;28.30;99.90;;;;;;5013086;28;19940;-74
2022/08/29 13:06:16;;;;;;;12.38;7.55;;;28.40;99.90;;;;;;5029050;28;20037;-74
2022/08/29 13:08:48;;;;;;;12.23;6.55;;;28.40;99.90;;;;;;5017046;28;20052;-73
2022/08/29 13:11:21;;;;;;;10.07;7.18;;;28.40;99.90;;;;;;5029948;28;20373;-73
2022/08/29 13:13:48;;;;;;;8.13;5.97;;;28.30;99.90;;;;;;5013334;28;20040;-74